Time;durP1;ratioP1;P1;durP2;ratioP2;P2;SDS_P1;SDS_P2;PMS_P1;PMS_P2;Temp;Humidity;BMP_temperature;BMP_pressure;BME280_temperature;BME280_humidity;BME280_pressure;Samples;Min_cycle;Max_cycle;Signal;HPM_P1;HPM_P2
2022/06/05 00:02:31;;;;;;;3.13;2.92;;;24.80;42.30;;;;;;4967628;28;20031;-49
2022/06/05 00:05:18;;;;;;;3.22;2.50;;;24.80;43.40;;;;;;4954332;28;20054;-53
2022/06/05 00:08:11;;;;;;;2.95;2.75;;;24.70;42.90;;;;;;4956082;28;20043;-52
2022/06/05 00:10:53;;;;;;;3.25;2.97;;;24.70;43.20;;;;;;4946961;28;20051;-53
2022/06/05 00:13:26;;;;;;;3.47;3.28;;;24.60;43.80;;;;;;4949981;28;20063;-52
2022/06/05 00:15:58;;;;;;;2.80;2.35;;;24.60;43.10;;;;;;4950523;28;20047;-49
2022/06/05 00:18:32;;;;;;;3.15;2.78;;;24.50;43.10;;;;;;4954162;28;20059;-51
2022/06/05 00:21:00;;;;;;;3.25;3.05;;;24.50;43.90;;;;;;4951242;29;20042;-52
2022/06/05 00:23:30;;;;;;;4.45;3.00;;;24.50;43.30;;;;;;4955730;28;20074;-49
2022/06/05 00:26:15;;;;;;;3.33;3.03;;;24.40;43.40;;;;;;4964266;28;20038;-52
2022/06/05 00:29:00;;;;;;;2.88;2.67;;;24.40;44.10;;;;;;4973552;28;20050;-50
2022/06/05 00:31:39;;;;;;;3.20;2.90;;;24.40;44.60;;;;;;4957669;28;20043;-52
2022/06/05 00:34:07;;;;;;;2.75;2.55;;;24.40;44.50;;;;;;4953366;28;20056;-51
2022/06/05 00:36:49;;;;;;;3.03;2.83;;;24.30;44.20;;;;;;4962399;28;20046;-52
2022/06/05 00:39:24;;;;;;;2.83;2.63;;;24.20;44.40;;;;;;4973582;28;20400;-53
2022/06/05 00:42:07;;;;;;;4.05;3.47;;;24.20;44.40;;;;;;4960509;28;20064;-50
2022/06/05 00:44:36;;;;;;;;;;;24.10;44.90;;;;;;4963974;28;20038;-52
2022/06/05 00:47:04;;;;;;;3.35;2.85;;;24.10;43.50;;;;;;4972481;28;20438;-52
2022/06/05 00:49:38;;;;;;;3.17;2.97;;;24.00;44.40;;;;;;4958817;28;20046;-52
2022/06/05 00:52:09;;;;;;;3.35;3.15;;;23.90;45.10;;;;;;4955677;28;20035;-52
2022/06/05 00:54:38;;;;;;;3.10;2.90;;;23.80;45.30;;;;;;4963980;28;20446;-53
2022/06/05 00:57:07;;;;;;;3.05;2.85;;;23.80;45.60;;;;;;4972400;28;20047;-52
2022/06/05 00:59:39;;;;;;;3.60;3.40;;;23.70;45.90;;;;;;4961579;28;20041;-51
2022/06/05 01:02:08;;;;;;;3.80;3.50;;;23.60;46.40;;;;;;4968921;28;20089;-53
2022/06/05 01:04:43;;;;;;;3.40;3.10;;;23.50;46.20;;;;;;4933272;29;20115;-51
2022/06/05 01:07:11;;;;;;;3.50;3.20;;;23.50;46.60;;;;;;4936612;28;20054;-51
2022/06/05 01:09:41;;;;;;;4.00;3.70;;;23.30;46.60;;;;;;4949651;28;20070;-52
2022/06/05 01:12:32;;;;;;;3.17;2.88;;;23.20;47.00;;;;;;4961162;28;20499;-52
2022/06/05 01:15:13;;;;;;;3.65;3.35;;;23.20;47.40;;;;;;4959012;28;20047;-52
2022/06/05 01:17:55;;;;;;;3.97;3.67;;;23.10;47.80;;;;;;4949457;28;20041;-52
2022/06/05 01:20:41;;;;;;;3.60;3.40;;;23.10;47.40;;;;;;4967072;28;20046;-52
2022/06/05 01:23:38;;;;;;;3.72;3.42;;;22.90;47.80;;;;;;4953376;29;20043;-51
2022/06/05 01:26:15;;;;;;;3.50;3.20;;;22.80;47.90;;;;;;4949319;28;20054;-52
2022/06/05 01:28:54;;;;;;;3.83;3.55;;;22.70;48.30;;;;;;4942492;28;20050;-48
2022/06/05 01:31:36;;;;;;;4.00;3.70;;;22.70;48.70;;;;;;4963183;28;20082;-52
2022/06/05 01:34:21;;;;;;;3.97;3.53;;;22.60;48.90;;;;;;4967600;28;20049;-50
2022/06/05 01:37:28;;;;;;;4.25;3.95;;;22.50;48.40;;;;;;4966806;28;20046;-52
2022/06/05 01:40:00;;;;;;;4.32;4.03;;;22.40;49.20;;;;;;4961870;28;20042;-51
2022/06/05 01:42:36;;;;;;;3.60;3.30;;;22.30;48.70;;;;;;4956740;28;20047;-52
2022/06/05 01:45:15;;;;;;;3.80;3.53;;;22.20;49.60;;;;;;4963275;28;20120;-49
2022/06/05 01:47:55;;;;;;;7.85;4.25;;;22.20;49.50;;;;;;4958107;28;20055;-49
2022/06/05 01:50:39;;;;;;;4.13;3.83;;;22.10;50.00;;;;;;4962444;28;20109;-52
2022/06/05 01:53:19;;;;;;;4.10;3.67;;;22.00;49.70;;;;;;4968508;28;20042;-51
2022/06/05 01:55:56;;;;;;;4.15;3.85;;;22.00;50.50;;;;;;4967574;28;20078;-51
2022/06/05 01:58:47;;;;;;;4.30;4.00;;;21.90;50.70;;;;;;4961266;28;20039;-50
2022/06/05 02:01:19;;;;;;;3.92;3.58;;;21.90;50.80;;;;;;4962536;28;20047;-52
2022/06/05 02:04:04;;;;;;;4.03;3.73;;;21.80;50.50;;;;;;4951235;29;20047;-53
2022/06/05 02:06:38;;;;;;;4.28;3.97;;;21.80;51.20;;;;;;4949104;28;20040;-51
2022/06/05 02:09:28;;;;;;;4.20;3.90;;;21.70;51.20;;;;;;4958214;28;20047;-51
2022/06/05 02:12:03;;;;;;;4.20;3.90;;;21.70;51.60;;;;;;4932980;29;20043;-49
2022/06/05 02:14:30;;;;;;;4.53;4.13;;;21.70;51.10;;;;;;4932615;29;20050;-49
2022/06/05 02:16:58;;;;;;;4.45;4.05;;;21.60;51.50;;;;;;4949982;28;20562;-50
2022/06/05 02:19:27;;;;;;;4.82;4.47;;;21.60;51.80;;;;;;4961058;28;20102;-49
2022/06/05 02:22:01;;;;;;;4.25;3.95;;;21.60;52.10;;;;;;4970160;28;20682;-47
2022/06/05 02:24:29;;;;;;;4.60;4.30;;;21.60;52.80;;;;;;4963189;28;20567;-50
2022/06/05 02:27:01;;;;;;;4.50;4.20;;;21.60;52.50;;;;;;4952348;28;20035;-51
2022/06/05 02:29:30;;;;;;;4.60;4.20;;;21.50;52.80;;;;;;4962685;28;20126;-51
2022/06/05 02:32:08;;;;;;;4.60;4.20;;;21.60;52.70;;;;;;4954974;28;20407;-50
2022/06/05 02:35:00;;;;;;;4.43;4.03;;;21.60;52.80;;;;;;4955472;28;20046;-49
2022/06/05 02:38:03;;;;;;;4.40;4.00;;;21.60;53.30;;;;;;4961164;28;20125;-49
2022/06/05 02:40:46;;;;;;;6.38;4.55;;;21.60;53.30;;;;;;4956157;28;20047;-52
2022/06/05 02:43:22;;;;;;;5.20;4.82;;;21.60;53.30;;;;;;4956299;28;20043;-52
2022/06/05 02:46:00;;;;;;;5.15;4.75;;;21.70;53.00;;;;;;4951834;28;20101;-52
2022/06/05 02:48:32;;;;;;;5.00;4.50;;;21.70;52.60;;;;;;4962810;28;20053;-52
2022/06/05 02:51:13;;;;;;;5.75;4.97;;;21.80;53.10;;;;;;4960609;28;20051;-52
2022/06/05 02:53:54;;;;;;;5.10;4.80;;;21.80;53.00;;;;;;4949655;28;20047;-52
2022/06/05 02:56:26;;;;;;;5.20;4.78;;;21.90;53.20;;;;;;4960626;28;20051;-52
2022/06/05 02:58:55;;;;;;;5.15;4.75;;;21.90;52.60;;;;;;4971117;28;20043;-51
2022/06/05 03:04:08;;;;;;;5.45;4.75;;;22.00;52.60;;;;;;4956648;28;20086;-53
2022/06/05 03:06:44;;;;;;;5.43;5.03;;;22.00;52.20;;;;;;4952271;28;20039;-52
2022/06/05 03:09:12;;;;;;;4.50;4.18;;;22.10;52.20;;;;;;4951123;28;20059;-51
2022/06/05 03:11:43;;;;;;;5.72;4.97;;;22.10;51.70;;;;;;4954561;28;20043;-52
2022/06/05 03:14:14;;;;;;;5.15;4.75;;;22.10;51.70;;;;;;4964462;28;20126;-53
2022/06/05 03:16:43;;;;;;;5.75;5.28;;;22.10;51.70;;;;;;4957240;28;20050;-51
2022/06/05 03:19:10;;;;;;;5.25;4.75;;;22.20;51.70;;;;;;4956585;28;20550;-51
2022/06/05 03:21:37;;;;;;;5.22;4.75;;;22.20;51.60;;;;;;4956244;28;20043;-48
2022/06/05 03:24:08;;;;;;;5.50;4.82;;;22.30;51.60;;;;;;4965294;28;20046;-52
2022/06/05 03:26:39;;;;;;;5.47;4.97;;;22.30;51.60;;;;;;4935378;29;20035;-49
2022/06/05 03:29:07;;;;;;;5.90;5.45;;;22.40;51.30;;;;;;4937247;29;20044;-53
2022/06/05 03:31:35;;;;;;;5.00;4.47;;;22.30;51.40;;;;;;4952639;28;20050;-48
2022/06/05 03:34:03;;;;;;;4.80;4.40;;;22.40;51.50;;;;;;4962357;28;20051;-52
2022/06/05 03:36:31;;;;;;;4.80;4.40;;;22.40;51.20;;;;;;4952530;28;20086;-51
2022/06/05 03:38:58;;;;;;;4.72;4.32;;;22.40;51.40;;;;;;4952322;28;20473;-52
2022/06/05 03:41:25;;;;;;;4.82;4.20;;;22.40;51.10;;;;;;4952668;28;20043;-51
2022/06/05 03:43:54;;;;;;;5.22;4.75;;;22.40;51.30;;;;;;4967675;28;20391;-50
2022/06/05 03:46:23;;;;;;;5.28;4.78;;;22.50;51.40;;;;;;4970650;28;20047;-53
2022/06/05 03:48:52;;;;;;;5.22;4.82;;;22.50;51.40;;;;;;4966137;28;20054;-52
2022/06/05 03:51:26;;;;;;;4.60;4.25;;;22.50;51.20;;;;;;4968048;28;20054;-52
2022/06/05 03:53:52;;;;;;;4.88;4.43;;;22.40;51.30;;;;;;4968333;28;20062;-51
2022/06/05 03:56:21;;;;;;;5.25;4.75;;;22.40;51.60;;;;;;4973307;23;20102;-50
2022/06/05 03:58:49;;;;;;;4.85;4.32;;;22.40;51.50;;;;;;4951414;28;20051;-47
2022/06/05 04:01:19;;;;;;;5.53;5.03;;;22.40;51.40;;;;;;4964765;28;20557;-47
2022/06/05 04:03:46;;;;;;;5.57;4.88;;;22.30;51.60;;;;;;4961730;28;20443;-49
2022/06/05 04:06:21;;;;;;;5.55;5.07;;;22.30;51.30;;;;;;4951599;28;20051;-51
2022/06/05 04:08:48;;;;;;;4.55;4.15;;;22.30;51.70;;;;;;4965210;28;20078;-49
2022/06/05 04:11:20;;;;;;;6.00;5.40;;;22.30;51.30;;;;;;4965208;28;20075;-50
2022/06/05 04:13:52;;;;;;;5.68;5.18;;;22.30;51.60;;;;;;4952792;29;20122;-49
2022/06/05 04:16:26;;;;;;;5.10;4.65;;;22.30;51.50;;;;;;4957645;28;20059;-51
2022/06/05 04:18:59;;;;;;;5.47;4.97;;;22.30;51.60;;;;;;4961666;28;20035;-53
2022/06/05 04:21:32;;;;;;;5.15;4.75;;;22.30;51.70;;;;;;4964426;28;20051;-49
2022/06/05 04:23:59;;;;;;;5.88;5.28;;;22.30;51.90;;;;;;4973147;28;20089;-51
2022/06/05 04:26:29;;;;;;;5.88;5.03;;;22.20;51.80;;;;;;4967116;28;20086;-51
2022/06/05 04:28:59;;;;;;;4.90;4.50;;;22.20;52.10;;;;;;4963861;28;20094;-52
2022/06/05 04:31:37;;;;;;;5.63;5.00;;;22.30;52.50;;;;;;4965369;28;20396;-53
2022/06/05 04:34:07;;;;;;;4.97;4.57;;;22.20;52.60;;;;;;4968733;28;20043;-50
2022/06/05 04:36:36;;;;;;;5.20;4.70;;;22.20;52.80;;;;;;4947179;28;20039;-50
2022/06/05 04:39:06;;;;;;;5.22;4.72;;;22.20;52.70;;;;;;4960884;28;20038;-51
2022/06/05 04:41:34;;;;;;;6.22;4.47;;;22.20;53.30;;;;;;4946780;28;20059;-50
2022/06/05 04:44:03;;;;;;;4.97;4.65;;;22.20;53.40;;;;;;4954147;28;20040;-51
2022/06/05 04:46:33;;;;;;;5.15;4.75;;;22.20;53.50;;;;;;4951961;28;20039;-51
2022/06/05 04:49:02;;;;;;;4.90;4.55;;;22.20;53.60;;;;;;4953593;29;20043;-50
2022/06/05 04:51:30;;;;;;;5.78;4.65;;;22.20;53.60;;;;;;4959779;28;20054;-50
2022/06/05 04:54:01;;;;;;;6.05;5.03;;;22.20;53.70;;;;;;4960144;28;20508;-53
2022/06/05 04:56:28;;;;;;;5.33;4.93;;;22.20;53.60;;;;;;4961936;28;20110;-50
2022/06/05 04:59:00;;;;;;;4.72;4.32;;;22.20;53.60;;;;;;4965060;28;20054;-52
2022/06/05 05:01:38;;;;;;;5.22;4.72;;;22.20;53.60;;;;;;4968896;28;20043;-50
2022/06/05 05:04:10;;;;;;;5.40;4.90;;;22.20;53.70;;;;;;4949826;28;20608;-50
2022/06/05 05:06:43;;;;;;;5.53;4.95;;;22.20;53.90;;;;;;4958575;28;20089;-49
2022/06/05 05:09:11;;;;;;;5.15;4.65;;;22.20;53.60;;;;;;4969417;28;20054;-52
2022/06/05 05:11:43;;;;;;;5.53;5.03;;;22.20;53.70;;;;;;4953720;28;20062;-50
2022/06/05 05:14:12;;;;;;;6.45;5.85;;;22.20;54.10;;;;;;4949339;28;20737;-50
2022/06/05 05:16:41;;;;;;;6.53;5.05;;;22.30;53.70;;;;;;4961397;28;20681;-50
2022/06/05 05:19:11;;;;;;;5.65;5.15;;;22.30;53.60;;;;;;4969073;28;20074;-54
2022/06/05 05:21:40;;;;;;;5.57;5.07;;;22.30;53.60;;;;;;4958267;28;20503;-52
2022/06/05 05:24:08;;;;;;;4.95;4.47;;;22.40;53.40;;;;;;4962960;28;20051;-50
2022/06/05 05:26:53;;;;;;;5.32;4.82;;;22.40;53.30;;;;;;4971114;28;20100;-55
2022/06/05 05:29:22;;;;;;;5.88;5.35;;;22.50;54.00;;;;;;4970166;28;20108;-53
2022/06/05 05:31:49;;;;;;;5.25;4.85;;;22.50;53.70;;;;;;4948178;28;20047;-53
2022/06/05 05:34:16;;;;;;;4.57;4.28;;;22.50;54.00;;;;;;4961279;28;20529;-54
2022/06/05 05:36:42;;;;;;;5.30;4.78;;;22.60;54.00;;;;;;4961203;28;20108;-51
2022/06/05 05:42:09;;;;;;;5.18;4.78;;;22.60;53.80;;;;;;4951662;28;20039;-50
2022/06/05 05:44:42;;;;;;;5.00;4.57;;;22.70;53.70;;;;;;4961477;28;20047;-55
2022/06/05 05:47:19;;;;;;;5.30;4.82;;;22.70;53.80;;;;;;4952348;29;20082;-52
2022/06/05 05:49:51;;;;;;;5.63;5.13;;;22.70;53.60;;;;;;4955738;28;20055;-52
2022/06/05 05:52:22;;;;;;;5.65;5.18;;;22.80;53.50;;;;;;4956699;28;20051;-53
2022/06/05 05:54:49;;;;;;;5.47;4.97;;;22.80;53.40;;;;;;4963299;28;20113;-52
2022/06/05 05:57:21;;;;;;;5.35;4.90;;;22.80;53.40;;;;;;4971805;28;20046;-54
2022/06/05 05:59:50;;;;;;;4.85;4.45;;;22.90;53.50;;;;;;4967347;28;20565;-51
2022/06/05 06:02:22;;;;;;;5.63;5.13;;;22.90;53.90;;;;;;4955615;28;20101;-50
2022/06/05 06:04:53;;;;;;;4.88;4.53;;;22.90;53.30;;;;;;4958281;28;20117;-50
2022/06/05 06:07:20;;;;;;;4.93;4.53;;;22.90;53.20;;;;;;4951480;28;20604;-51
2022/06/05 06:09:47;;;;;;;5.15;4.50;;;23.00;53.50;;;;;;4949673;28;20073;-53
2022/06/05 06:12:27;;;;;;;5.03;4.63;;;23.00;53.20;;;;;;4964950;28;20410;-53
2022/06/05 06:14:56;;;;;;;4.97;4.57;;;23.10;53.20;;;;;;4962978;28;20074;-50
2022/06/05 06:17:24;;;;;;;5.03;4.63;;;23.10;52.90;;;;;;4949876;28;20044;-52
2022/06/05 06:19:53;;;;;;;5.43;4.95;;;23.20;53.00;;;;;;4963943;28;20599;-50
2022/06/05 06:22:20;;;;;;;5.47;4.97;;;23.20;52.80;;;;;;4963442;28;20085;-50
2022/06/05 06:24:52;;;;;;;4.77;4.43;;;23.30;53.00;;;;;;4971245;28;20043;-52
2022/06/05 06:27:20;;;;;;;6.07;4.78;;;23.30;53.00;;;;;;4950328;28;20043;-55
2022/06/05 06:29:49;;;;;;;5.47;4.97;;;23.40;52.70;;;;;;4949361;28;20073;-51
2022/06/05 06:32:18;;;;;;;5.05;4.60;;;23.40;52.30;;;;;;4961033;28;20096;-51
2022/06/05 06:34:47;;;;;;;5.28;4.78;;;23.50;52.40;;;;;;4970706;28;20050;-50
2022/06/05 06:37:14;;;;;;;4.97;4.68;;;23.50;52.40;;;;;;4959019;28;20519;-52
2022/06/05 06:39:43;;;;;;;5.15;4.75;;;23.50;52.30;;;;;;4961077;28;20043;-52
2022/06/05 06:42:16;;;;;;;5.22;4.93;;;23.60;52.20;;;;;;4951523;28;20457;-53
2022/06/05 06:44:49;;;;;;;;;;;23.60;52.20;;;;;;4961520;28;20413;-51
2022/06/05 06:47:19;;;;;;;4.82;4.43;;;23.70;51.60;;;;;;4961370;28;19969;-50
2022/06/05 06:49:50;;;;;;;4.78;4.38;;;23.70;51.60;;;;;;4961262;28;20527;-50
2022/06/05 06:52:17;;;;;;;4.75;4.45;;;23.70;51.70;;;;;;4966296;28;20085;-52
2022/06/05 06:54:43;;;;;;;11.27;5.55;;;23.70;51.70;;;;;;4962901;28;20074;-51
2022/06/05 06:57:11;;;;;;;5.07;4.68;;;23.70;52.50;;;;;;4954490;28;20051;-50
2022/06/05 06:59:41;;;;;;;5.60;5.20;;;23.80;51.90;;;;;;4965871;28;20580;-54
2022/06/05 07:02:20;;;;;;;6.15;5.10;;;23.80;52.10;;;;;;4963176;28;20050;-54
2022/06/05 07:04:49;;;;;;;5.55;4.97;;;23.80;51.80;;;;;;4950884;28;20043;-51
2022/06/05 07:07:18;;;;;;;4.70;4.40;;;23.90;51.90;;;;;;4955674;28;20070;-52
2022/06/05 07:09:47;;;;;;;5.22;4.72;;;23.90;52.10;;;;;;4975334;28;20038;-53
2022/06/05 07:12:21;;;;;;;4.97;4.57;;;23.90;52.00;;;;;;4975466;28;20046;-51
2022/06/05 07:14:48;;;;;;;5.95;5.45;;;23.90;51.90;;;;;;4955727;28;20050;-52
2022/06/05 07:17:19;;;;;;;5.05;4.55;;;24.00;51.90;;;;;;4964285;28;20055;-51
2022/06/05 07:19:51;;;;;;;5.22;4.85;;;24.10;51.90;;;;;;4974770;28;20521;-52
2022/06/05 07:22:17;;;;;;;5.72;5.28;;;24.10;52.40;;;;;;4975052;28;20566;-53
2022/06/05 07:24:44;;;;;;;4.78;4.40;;;24.20;52.30;;;;;;4954139;28;20042;-51
2022/06/05 07:27:11;;;;;;;7.22;5.45;;;24.20;52.30;;;;;;4967272;28;20035;-50
2022/06/05 07:29:39;;;;;;;5.53;5.13;;;24.30;52.30;;;;;;4958290;28;20079;-52
2022/06/05 07:32:11;;;;;;;5.85;4.80;;;24.40;52.10;;;;;;4974875;28;20047;-55
2022/06/05 07:34:38;;;;;;;5.38;5.00;;;24.40;52.10;;;;;;4958779;28;20153;-54
2022/06/05 07:37:13;;;;;;;;;;;24.50;52.00;;;;;;4962867;28;20039;-52
2022/06/05 07:39:45;;;;;;;4.90;4.50;;;24.70;51.50;;;;;;4966301;28;19969;-52
2022/06/05 07:42:20;;;;;;;8.55;5.35;;;24.70;51.50;;;;;;4956269;28;20114;-54
2022/06/05 07:44:47;;;;;;;5.03;4.63;;;24.80;51.60;;;;;;4952429;28;20101;-52
2022/06/05 07:47:18;;;;;;;5.45;5.03;;;24.90;51.50;;;;;;4962695;28;20043;-50
2022/06/05 07:49:47;;;;;;;5.18;4.78;;;24.90;51.40;;;;;;4955441;29;20106;-52
2022/06/05 07:55:04;;;;;;;5.15;4.85;;;25.10;51.10;;;;;;4956317;28;20071;-53
2022/06/05 07:57:33;;;;;;;5.72;5.32;;;25.20;51.50;;;;;;4963924;28;20042;-55
2022/06/05 08:00:00;;;;;;;5.97;5.47;;;25.30;51.50;;;;;;4974365;28;20105;-54
2022/06/05 08:02:28;;;;;;;5.82;5.43;;;25.30;51.70;;;;;;4960414;28;20047;-56
2022/06/05 08:05:00;;;;;;;6.40;5.80;;;25.40;51.50;;;;;;4965029;28;20062;-54
2022/06/05 08:07:31;;;;;;;5.75;5.32;;;25.60;51.50;;;;;;4958329;28;20047;-53
2022/06/05 08:10:11;;;;;;;5.30;5.00;;;25.70;51.20;;;;;;4952210;28;20074;-54
2022/06/05 08:12:37;;;;;;;5.93;5.30;;;25.80;50.80;;;;;;4958297;28;20046;-51
2022/06/05 08:15:09;;;;;;;5.85;5.40;;;25.90;50.60;;;;;;4961480;28;20126;-50
2022/06/05 08:17:38;;;;;;;5.55;5.07;;;26.00;50.90;;;;;;4950352;29;20054;-51
2022/06/05 08:20:07;;;;;;;6.25;5.75;;;26.10;50.30;;;;;;4953736;28;20047;-49
2022/06/05 08:22:36;;;;;;;5.57;5.18;;;26.10;49.90;;;;;;4956281;28;20066;-51
2022/06/05 08:25:07;;;;;;;5.65;5.25;;;26.20;50.20;;;;;;4963961;28;20051;-54
2022/06/05 08:27:39;;;;;;;6.22;5.82;;;26.30;50.10;;;;;;4970978;28;20050;-51
2022/06/05 08:30:06;;;;;;;5.95;5.50;;;26.30;50.30;;;;;;4958606;28;20570;-52
2022/06/05 08:32:34;;;;;;;5.95;5.45;;;26.40;49.50;;;;;;4965388;28;20133;-52
2022/06/05 08:35:03;;;;;;;6.20;5.70;;;26.40;49.40;;;;;;4972835;28;20051;-53
2022/06/05 08:43:45;;;;;;;6.82;6.22;;;26.50;49.90;;;;;;4966321;28;20049;-50
2022/06/05 08:46:18;;;;;;;5.63;5.22;;;26.50;49.80;;;;;;4965848;28;20534;-50
2022/06/05 08:48:54;;;;;;;6.22;5.72;;;26.50;49.60;;;;;;4973617;28;20043;-50
2022/06/05 08:51:54;;;;;;;5.30;5.00;;;26.50;49.40;;;;;;4951829;28;20043;-55
2022/06/05 08:54:31;;;;;;;5.85;5.40;;;26.60;49.70;;;;;;4954052;29;20055;-51
2022/06/05 08:57:10;;;;;;;5.93;5.43;;;26.60;49.90;;;;;;4950473;29;20035;-53
2022/06/05 09:00:03;;;;;;;5.93;5.45;;;26.60;49.60;;;;;;4953015;28;20042;-51
2022/06/05 09:02:39;;;;;;;;;;;26.60;49.50;;;;;;4969189;28;20117;-50
2022/06/05 09:05:16;;;;;;;7.07;5.90;;;26.60;49.10;;;;;;4952771;28;19922;-54
2022/06/05 09:07:51;;;;;;;6.35;5.85;;;26.60;50.00;;;;;;4951411;28;20039;-50
2022/06/05 09:10:34;;;;;;;5.82;5.32;;;26.60;50.00;;;;;;4964380;28;20058;-50
2022/06/05 09:13:11;;;;;;;6.45;5.95;;;26.50;50.40;;;;;;4968238;28;20050;-50
2022/06/05 09:15:42;;;;;;;6.45;5.95;;;26.40;50.40;;;;;;4959078;28;20050;-54
2022/06/05 09:18:20;;;;;;;7.55;6.03;;;26.30;50.90;;;;;;4959870;28;20042;-51
2022/06/05 09:20:59;;;;;;;6.30;5.63;;;26.30;51.30;;;;;;4961074;28;20051;-53
2022/06/05 09:23:40;;;;;;;6.25;5.75;;;26.20;51.10;;;;;;4970392;28;20113;-51
2022/06/05 09:26:16;;;;;;;;;;;26.20;51.70;;;;;;4956292;28;20040;-55
2022/06/05 09:28:55;;;;;;;6.72;6.22;;;26.10;50.70;;;;;;4967314;28;19922;-50
2022/06/05 09:31:40;;;;;;;7.10;6.43;;;26.10;51.70;;;;;;4970877;28;20050;-50
2022/06/05 09:34:38;;;;;;;7.57;6.97;;;25.90;52.10;;;;;;4960559;28;20051;-52
2022/06/05 09:37:17;;;;;;;7.32;6.63;;;25.90;53.40;;;;;;4938705;28;20068;-50
2022/06/05 09:40:00;;;;;;;7.13;6.53;;;25.80;52.80;;;;;;4953757;28;20062;-54
2022/06/05 09:42:33;;;;;;;7.00;6.35;;;25.70;53.90;;;;;;4956545;28;20123;-50
2022/06/05 09:45:33;;;;;;;7.90;7.22;;;25.70;53.90;;;;;;4963487;28;20043;-50
2022/06/05 09:48:04;;;;;;;8.35;7.65;;;25.60;55.60;;;;;;4971015;28;20046;-53
2022/06/05 09:50:31;;;;;;;7.75;7.05;;;25.40;54.70;;;;;;4962502;28;20062;-52
2022/06/05 09:52:58;;;;;;;8.68;7.78;;;25.30;55.30;;;;;;4964286;28;20751;-53
2022/06/05 09:55:50;;;;;;;9.48;8.20;;;25.10;55.60;;;;;;4953773;28;20039;-53
2022/06/05 09:58:56;;;;;;;7.53;6.93;;;25.00;57.50;;;;;;4950763;28;20070;-50
2022/06/05 10:01:33;;;;;;;7.75;6.97;;;24.90;57.40;;;;;;4962569;28;20039;-55
2022/06/05 10:04:05;;;;;;;8.75;7.90;;;24.70;58.10;;;;;;4955666;28;20062;-50
2022/06/05 10:06:45;;;;;;;8.20;7.53;;;24.60;57.80;;;;;;4962568;28;20042;-52
2022/06/05 10:09:19;;;;;;;8.23;7.50;;;24.50;58.70;;;;;;4949950;29;20451;-52
2022/06/05 10:11:54;;;;;;;9.13;8.32;;;24.50;59.40;;;;;;4955015;28;20106;-51
2022/06/05 10:14:54;;;;;;;9.52;8.63;;;24.50;59.00;;;;;;4952684;28;20093;-51
2022/06/05 10:17:24;;;;;;;8.98;8.27;;;24.50;59.60;;;;;;4959876;28;20047;-50
2022/06/05 10:19:59;;;;;;;9.73;8.80;;;24.50;59.70;;;;;;4971700;28;20135;-53
2022/06/05 10:23:05;;;;;;;9.77;8.93;;;24.50;60.10;;;;;;4960349;28;20039;-52
2022/06/05 10:25:52;;;;;;;10.27;9.02;;;24.40;59.90;;;;;;4964413;23;20732;-50
2022/06/05 10:28:23;;;;;;;8.82;8.02;;;24.40;60.00;;;;;;4952350;29;20052;-50
2022/06/05 10:31:10;;;;;;;9.07;8.27;;;24.40;60.10;;;;;;4953166;28;20047;-48
2022/06/05 10:33:39;;;;;;;8.50;7.68;;;24.30;60.80;;;;;;4954682;28;20043;-51
2022/06/05 10:36:34;;;;;;;7.85;7.15;;;24.30;59.90;;;;;;4938346;29;20035;-49
2022/06/05 10:39:12;;;;;;;8.80;7.90;;;24.30;60.90;;;;;;4952398;28;20051;-50
2022/06/05 10:41:51;;;;;;;9.10;8.25;;;24.30;60.70;;;;;;4925480;29;20043;-48
2022/06/05 10:44:46;;;;;;;12.57;8.65;;;24.20;61.10;;;;;;4943579;28;20036;-48
2022/06/05 10:47:47;;;;;;;8.70;7.90;;;24.20;61.40;;;;;;4952476;29;20086;-51
2022/06/05 10:50:58;;;;;;;9.00;8.20;;;24.30;62.00;;;;;;4943359;28;20048;-51
2022/06/05 10:53:46;;;;;;;9.10;8.30;;;24.30;61.90;;;;;;4923065;29;20055;-52
2022/06/05 10:56:33;;;;;;;9.23;8.52;;;24.30;61.60;;;;;;4948754;29;20051;-53
2022/06/05 10:59:24;;;;;;;9.20;8.40;;;24.50;62.60;;;;;;4952787;28;20043;-53
2022/06/05 11:02:15;;;;;;;10.05;9.15;;;24.60;61.90;;;;;;4931645;29;20046;-53
2022/06/05 11:04:53;;;;;;;10.32;9.43;;;24.70;63.00;;;;;;4933516;28;20408;-53
2022/06/05 11:07:44;;;;;;;10.10;9.30;;;24.90;62.30;;;;;;4932362;29;20424;-52
2022/06/05 11:13:39;;;;;;;10.13;9.25;;;25.00;62.60;;;;;;4936820;29;20039;-53
2022/06/05 11:13:40;;;;;;;10.48;9.57;;;25.20;62.50;;;;;;4939340;28;20091;-53
2022/06/05 11:16:12;;;;;;;11.30;10.30;;;25.30;62.20;;;;;;4939552;28;20050;-53
2022/06/05 11:19:20;;;;;;;10.50;9.65;;;25.50;61.80;;;;;;4933258;29;20467;-52
2022/06/05 11:21:51;;;;;;;9.75;8.95;;;25.70;61.20;;;;;;4904288;29;20464;-53
2022/06/05 11:24:18;;;;;;;10.75;9.82;;;25.80;61.20;;;;;;4950116;28;20558;-53
2022/06/05 11:27:13;;;;;;;10.40;9.68;;;26.00;60.90;;;;;;4928492;29;20050;-51
2022/06/05 11:29:52;;;;;;;11.25;10.25;;;26.10;62.00;;;;;;4932245;29;20050;-53
2022/06/05 11:32:28;;;;;;;10.48;9.65;;;26.40;61.90;;;;;;4943996;28;20040;-53
2022/06/05 11:35:19;;;;;;;11.07;10.15;;;26.50;61.50;;;;;;4955212;28;20051;-52
2022/06/05 11:37:55;;;;;;;10.82;9.82;;;26.80;61.20;;;;;;4940974;29;20090;-52
2022/06/05 11:40:59;;;;;;;10.82;10.02;;;27.00;60.40;;;;;;4942234;29;20051;-53
2022/06/05 11:43:34;;;;;;;10.13;9.23;;;27.10;59.40;;;;;;4951777;29;20473;-53
2022/06/05 11:46:28;;;;;;;10.35;9.45;;;27.40;58.60;;;;;;4948221;29;20511;-53
2022/06/05 11:49:06;;;;;;;9.88;9.02;;;27.50;58.20;;;;;;4943624;29;20091;-52
2022/06/05 11:51:57;;;;;;;10.25;9.52;;;27.60;58.30;;;;;;4947365;29;20036;-53
2022/06/05 11:54:37;;;;;;;10.32;9.23;;;27.80;58.60;;;;;;4955376;28;20051;-52
2022/06/05 11:57:09;;;;;;;9.07;8.27;;;27.90;58.60;;;;;;4939698;29;20048;-53
2022/06/05 12:00:06;;;;;;;9.27;8.38;;;28.00;57.30;;;;;;4936646;29;20050;-53
2022/06/05 12:02:53;;;;;;;8.73;8.02;;;28.10;57.30;;;;;;4934563;29;20111;-51
2022/06/05 12:06:04;;;;;;;8.55;7.75;;;28.30;56.50;;;;;;4932728;29;20402;-52
2022/06/05 12:08:46;;;;;;;7.70;7.07;;;28.30;56.00;;;;;;4941132;29;20055;-53
2022/06/05 12:11:33;;;;;;;8.45;7.85;;;28.40;55.90;;;;;;4939483;28;20039;-53
2022/06/05 12:14:23;;;;;;;9.35;8.65;;;28.40;55.90;;;;;;4935594;29;20047;-52
2022/06/05 12:17:22;;;;;;;9.48;8.77;;;28.40;55.10;;;;;;4941193;28;20039;-51
2022/06/05 12:19:54;;;;;;;8.82;8.18;;;28.40;54.50;;;;;;4916819;29;20048;-52
2022/06/05 12:23:06;;;;;;;9.05;8.35;;;28.30;54.30;;;;;;4935381;29;20515;-53
2022/06/05 12:25:51;;;;;;;8.30;7.60;;;28.20;54.20;;;;;;4941463;29;20031;-50
2022/06/05 12:28:25;;;;;;;8.70;7.95;;;28.10;53.90;;;;;;4940858;29;20106;-52
2022/06/05 12:30:58;;;;;;;8.30;7.70;;;27.90;54.70;;;;;;4955175;28;20523;-53
2022/06/05 12:33:51;;;;;;;7.80;7.20;;;27.80;54.90;;;;;;4944937;28;20048;-53
2022/06/05 12:36:54;;;;;;;6.78;6.28;;;27.70;55.10;;;;;;4940874;29;20102;-51
2022/06/05 12:39:29;;;;;;;6.43;5.88;;;27.60;54.90;;;;;;4926651;29;20123;-53
2022/06/05 12:42:10;;;;;;;7.18;6.57;;;27.50;55.60;;;;;;4935744;29;20063;-52
2022/06/05 12:44:46;;;;;;;7.28;6.78;;;27.50;55.80;;;;;;4932347;28;20562;-53
2022/06/05 12:47:42;;;;;;;7.55;6.90;;;27.50;55.80;;;;;;4943513;29;20040;-51
2022/06/05 12:50:41;;;;;;;7.10;6.50;;;27.50;55.90;;;;;;4954685;28;20061;-53
2022/06/05 12:53:41;;;;;;;7.13;6.57;;;27.60;55.80;;;;;;4939336;28;20039;-52
2022/06/05 12:56:34;;;;;;;6.50;5.93;;;27.60;55.60;;;;;;4938342;29;20048;-53
2022/06/05 12:59:19;;;;;;;7.32;6.82;;;27.60;55.50;;;;;;4933413;29;20043;-53
2022/06/05 13:01:56;;;;;;;7.03;6.43;;;27.60;55.90;;;;;;4925610;29;20083;-51
2022/06/05 13:04:52;;;;;;;6.22;5.72;;;27.60;55.10;;;;;;4944104;28;20126;-53
2022/06/05 13:07:26;;;;;;;6.20;5.70;;;27.60;54.80;;;;;;4939890;28;20047;-53
2022/06/05 13:10:00;;;;;;;6.28;5.78;;;27.60;55.20;;;;;;4930925;29;20044;-53
2022/06/05 13:12:36;;;;;;;7.15;6.45;;;27.60;55.30;;;;;;4950277;28;20094;-53
2022/06/05 13:15:31;;;;;;;7.35;6.72;;;27.60;55.50;;;;;;4956759;28;20508;-52
2022/06/05 13:18:37;;;;;;;6.40;5.90;;;27.50;55.30;;;;;;4934634;29;20054;-53
2022/06/05 13:21:24;;;;;;;7.20;6.55;;;27.40;55.70;;;;;;4932824;29;20411;-52
2022/06/05 13:24:18;;;;;;;7.78;7.15;;;27.40;56.10;;;;;;4936438;29;20491;-52
2022/06/05 13:26:56;;;;;;;7.72;7.03;;;27.30;57.20;;;;;;4914745;29;20048;-48
2022/06/05 13:29:51;;;;;;;8.65;7.85;;;27.10;57.10;;;;;;4920388;29;20095;-53
2022/06/05 13:32:47;;;;;;;8.73;8.02;;;27.00;57.50;;;;;;4943644;29;20051;-51
2022/06/05 13:35:20;;;;;;;10.00;8.30;;;26.90;57.30;;;;;;4950096;28;20085;-52
2022/06/05 13:38:13;;;;;;;;;;;26.80;57.20;;;;;;4953056;28;20102;-52
2022/06/05 13:40:47;;;;;;;8.30;7.60;;;26.70;56.30;;;;;;4930602;29;19922;-53
2022/06/05 13:43:24;;;;;;;8.65;7.93;;;26.50;57.40;;;;;;4948104;29;20043;-49
2022/06/05 13:46:30;;;;;;;9.40;8.60;;;26.40;58.10;;;;;;4946649;29;20519;-53
2022/06/05 13:49:20;;;;;;;9.20;8.27;;;26.20;58.20;;;;;;4946155;29;20458;-53
2022/06/05 13:52:24;;;;;;;9.85;8.98;;;26.10;58.70;;;;;;4935611;29;20046;-49
2022/06/05 13:55:06;;;;;;;10.02;9.02;;;25.90;59.40;;;;;;4940621;28;20047;-53